Time;durP1;ratioP1;P1;durP2;ratioP2;P2;SDS_P1;SDS_P2;PMS_P1;PMS_P2;Temp;Humidity;BMP_temperature;BMP_pressure;BME280_temperature;BME280_humidity;BME280_pressure;Samples;Min_cycle;Max_cycle;Signal;HPM_P1;HPM_P2
2022/06/27 00:00:05;;;;;;;4.15;2.20;;;21.90;99.20;;;;;;5047211;28;20196;-32
2022/06/27 00:02:36;;;;;;;4.40;1.83;;;21.90;99.30;;;;;;5045603;28;20207;-33
2022/06/27 00:05:07;;;;;;;5.50;2.35;;;21.90;99.70;;;;;;5044723;28;20211;-32
2022/06/27 00:07:34;;;;;;;2.95;2.00;;;21.90;99.60;;;;;;5047039;28;20212;-32
2022/06/27 00:10:02;;;;;;;3.40;2.05;;;21.90;99.30;;;;;;5046442;28;20200;-32
2022/06/27 00:12:34;;;;;;;3.75;1.90;;;21.90;99.30;;;;;;5046819;28;20667;-32
2022/06/27 00:15:10;;;;;;;2.60;1.95;;;21.90;99.30;;;;;;5044471;28;20231;-33
2022/06/27 00:17:40;;;;;;;3.97;1.77;;;21.90;99.30;;;;;;5046498;28;20205;-33
2022/06/27 00:20:11;;;;;;;3.67;1.98;;;21.80;99.30;;;;;;5029205;28;20287;-33
2022/06/27 00:22:39;;;;;;;4.25;2.03;;;21.80;99.30;;;;;;5044996;28;20253;-33
2022/06/27 00:25:11;;;;;;;3.45;2.00;;;21.80;99.50;;;;;;5046082;28;20303;-33
2022/06/27 00:27:38;;;;;;;2.00;1.80;;;21.90;99.60;;;;;;5046055;28;20204;-33
2022/06/27 00:30:08;;;;;;;5.53;2.33;;;21.90;99.60;;;;;;5045972;28;20208;-33
2022/06/27 00:32:36;;;;;;;4.07;2.10;;;21.80;99.50;;;;;;5045932;28;20216;-33
2022/06/27 00:35:06;;;;;;;3.65;2.15;;;21.80;99.50;;;;;;5046129;28;20227;-33
2022/06/27 00:37:33;;;;;;;3.85;2.38;;;21.80;99.50;;;;;;5046748;28;20258;-48
2022/06/27 00:40:00;;;;;;;3.50;2.08;;;21.80;99.50;;;;;;5045399;28;20258;-49
2022/06/27 00:42:28;;;;;;;2.63;2.03;;;21.80;99.50;;;;;;5045971;28;20216;-49
2022/06/27 00:44:55;;;;;;;2.92;2.05;;;21.80;99.50;;;;;;5046464;28;20559;-49
2022/06/27 00:47:22;;;;;;;5.50;2.50;;;21.80;99.50;;;;;;5046108;28;20539;-47
2022/06/27 00:49:54;;;;;;;5.40;2.10;;;21.80;99.60;;;;;;5043381;28;20208;-49
2022/06/27 00:52:22;;;;;;;2.80;2.13;;;21.70;99.50;;;;;;5044769;28;20278;-49
2022/06/27 00:54:49;;;;;;;4.55;2.10;;;21.70;99.60;;;;;;5043859;28;20236;-49
2022/06/27 00:57:21;;;;;;;1.88;1.70;;;21.70;99.60;;;;;;5045926;28;20201;-49
2022/06/27 00:59:48;;;;;;;3.83;2.20;;;21.70;99.70;;;;;;5045189;28;20266;-48
2022/06/27 01:02:16;;;;;;;2.78;2.25;;;21.70;99.60;;;;;;5044824;28;20258;-48
2022/06/27 01:04:45;;;;;;;3.63;2.40;;;21.70;99.60;;;;;;5044284;28;20226;-48
2022/06/27 01:07:15;;;;;;;2.25;1.88;;;21.70;99.70;;;;;;5045650;28;20356;-48
2022/06/27 01:09:43;;;;;;;4.18;2.10;;;21.70;99.70;;;;;;5042935;28;20204;-49
2022/06/27 01:12:11;;;;;;;1.90;1.70;;;21.70;99.70;;;;;;5046139;28;20200;-49
2022/06/27 01:14:39;;;;;;;4.30;2.20;;;21.60;99.70;;;;;;5046187;28;20581;-49
2022/06/27 01:17:11;;;;;;;4.30;2.20;;;21.60;99.70;;;;;;5045243;28;20192;-49
2022/06/27 01:19:42;;;;;;;3.25;1.90;;;21.60;99.70;;;;;;5045656;28;20851;-49
2022/06/27 01:22:10;;;;;;;2.65;1.80;;;21.60;99.80;;;;;;5043881;28;20656;-49
2022/06/27 01:24:40;;;;;;;2.38;2.00;;;21.50;99.70;;;;;;5045454;28;20208;-49
2022/06/27 01:27:10;;;;;;;3.95;2.20;;;21.50;99.80;;;;;;5045808;28;20596;-49
2022/06/27 01:29:42;;;;;;;5.53;2.58;;;21.50;99.80;;;;;;5045638;28;20278;-49
2022/06/27 01:32:14;;;;;;;3.85;2.47;;;21.50;99.80;;;;;;5043676;28;20223;-49
2022/06/27 01:34:41;;;;;;;3.17;2.40;;;21.50;99.80;;;;;;5044386;28;20192;-49
2022/06/27 01:37:09;;;;;;;2.15;1.92;;;21.50;99.90;;;;;;5044982;28;20263;-49
2022/06/27 01:39:38;;;;;;;2.88;2.13;;;21.50;99.90;;;;;;5046168;28;20492;-49
2022/06/27 01:42:06;;;;;;;5.55;2.58;;;21.40;99.80;;;;;;5044588;28;20192;-49
2022/06/27 01:44:36;;;;;;;5.90;2.45;;;21.40;99.90;;;;;;5044947;28;20733;-49
2022/06/27 01:47:08;;;;;;;3.53;1.90;;;21.40;99.90;;;;;;5026835;28;20735;-48
2022/06/27 01:49:36;;;;;;;4.43;2.20;;;21.40;99.90;;;;;;5044229;28;20254;-49
2022/06/27 01:52:07;;;;;;;4.15;2.40;;;21.40;99.90;;;;;;5044210;28;20330;-49
2022/06/27 01:54:36;;;;;;;4.55;2.55;;;21.40;99.90;;;;;;5044110;28;20204;-49
2022/06/27 01:57:07;;;;;;;5.45;2.30;;;21.30;99.90;;;;;;5041801;28;20220;-49
2022/06/27 01:59:38;;;;;;;3.65;2.25;;;21.30;99.90;;;;;;5060729;28;20554;-49
2022/06/27 02:02:06;;;;;;;4.60;2.42;;;21.30;99.90;;;;;;5041362;28;20299;-49
2022/06/27 02:04:39;;;;;;;2.55;2.10;;;21.30;99.90;;;;;;5042244;28;20213;-49
2022/06/27 02:07:08;;;;;;;3.00;2.25;;;21.30;99.90;;;;;;5045604;28;20251;-49
2022/06/27 02:09:40;;;;;;;3.30;2.38;;;21.20;99.90;;;;;;5039919;28;20679;-49
2022/06/27 02:12:21;;;;;;;2.65;2.25;;;21.20;99.90;;;;;;5040785;28;20286;-49
2022/06/27 02:14:53;;;;;;;5.60;2.55;;;21.20;99.90;;;;;;5037627;28;20305;-49
2022/06/27 02:17:21;;;;;;;4.18;2.40;;;21.20;99.90;;;;;;5044738;28;20250;-49
2022/06/27 02:19:49;;;;;;;2.88;2.03;;;21.10;99.90;;;;;;5045061;28;20200;-49
2022/06/27 02:22:19;;;;;;;3.78;2.42;;;21.10;99.90;;;;;;5045152;28;20213;-49
2022/06/27 02:24:49;;;;;;;2.95;2.33;;;21.10;99.90;;;;;;5026816;28;20201;-49
2022/06/27 02:27:17;;;;;;;3.30;2.15;;;21.10;99.90;;;;;;5044656;28;20246;-49
2022/06/27 02:29:46;;;;;;;4.03;2.55;;;21.00;99.90;;;;;;5044326;28;20196;-46
2022/06/27 02:32:14;;;;;;;3.53;2.42;;;21.00;99.90;;;;;;5059823;28;20270;-49
2022/06/27 02:34:43;;;;;;;3.88;2.15;;;20.90;99.90;;;;;;5044905;28;20204;-49
2022/06/27 02:37:12;;;;;;;3.60;2.20;;;20.90;99.90;;;;;;5045402;28;20263;-49
2022/06/27 02:39:40;;;;;;;4.75;2.15;;;20.90;99.90;;;;;;5045419;28;20618;-49
2022/06/27 02:42:10;;;;;;;3.55;2.10;;;20.80;99.90;;;;;;5047761;28;20242;-49
2022/06/27 02:44:39;;;;;;;4.00;2.28;;;20.80;99.90;;;;;;5047337;28;20188;-49
2022/06/27 02:47:09;;;;;;;4.75;2.90;;;20.70;99.90;;;;;;5048576;28;20204;-49
2022/06/27 02:49:39;;;;;;;4.65;2.33;;;20.70;99.90;;;;;;5048318;28;20208;-48
2022/06/27 02:52:43;;;;;;;3.95;2.40;;;20.60;99.90;;;;;;5049067;28;20239;-49
2022/06/27 02:55:17;;;;;;;3.78;2.20;;;20.60;99.90;;;;;;5057504;28;20734;-49
2022/06/27 02:57:52;;;;;;;2.97;2.30;;;20.60;99.90;;;;;;5051842;28;20934;-49
2022/06/27 03:00:32;;;;;;;3.83;2.50;;;20.60;99.90;;;;;;5038237;28;20220;-33
2022/06/27 03:03:01;;;;;;;2.67;2.30;;;20.50;99.90;;;;;;5047150;28;20200;-33
2022/06/27 03:05:33;;;;;;;3.92;2.20;;;20.50;99.90;;;;;;5049267;28;20211;-33
2022/06/27 03:08:03;;;;;;;5.75;2.42;;;20.50;99.90;;;;;;5047406;28;20200;-33
2022/06/27 03:10:31;;;;;;;3.92;2.40;;;20.40;99.90;;;;;;5048946;28;20200;-33
2022/06/27 03:12:58;;;;;;;3.42;2.33;;;20.40;99.90;;;;;;5047437;28;20216;-33
2022/06/27 03:15:25;;;;;;;6.60;2.63;;;20.40;99.90;;;;;;5049170;28;20627;-33
2022/06/27 03:17:53;;;;;;;4.45;2.45;;;20.40;99.90;;;;;;5048225;28;20244;-33
2022/06/27 03:20:20;;;;;;;4.05;2.60;;;20.30;99.90;;;;;;5048262;28;20674;-33
2022/06/27 03:22:47;;;;;;;5.13;2.50;;;20.30;99.90;;;;;;5048662;28;20208;-34
2022/06/27 03:25:15;;;;;;;5.57;2.38;;;20.30;99.90;;;;;;5047627;28;20224;-33
2022/06/27 03:27:49;;;;;;;5.15;3.15;;;20.30;99.90;;;;;;5048203;28;20212;-34
2022/06/27 03:30:19;;;;;;;4.32;3.20;;;20.30;99.90;;;;;;5047633;28;20561;-34
2022/06/27 03:32:48;;;;;;;3.75;2.50;;;20.20;99.90;;;;;;5046578;28;20215;-33
2022/06/27 03:35:16;;;;;;;3.00;2.70;;;20.20;99.90;;;;;;5046705;28;20315;-33
2022/06/27 03:37:43;;;;;;;6.88;2.83;;;20.20;99.90;;;;;;5048048;28;20228;-33
2022/06/27 03:40:15;;;;;;;3.53;2.45;;;20.20;99.90;;;;;;5047157;28;20204;-50
2022/06/27 03:42:42;;;;;;;4.75;2.60;;;20.20;99.90;;;;;;5046718;28;20216;-49
2022/06/27 03:45:10;;;;;;;2.63;2.25;;;20.20;99.90;;;;;;5047978;28;20675;-49
2022/06/27 03:47:51;;;;;;;3.17;2.20;;;20.20;99.90;;;;;;5048205;28;20662;-49
2022/06/27 03:50:20;;;;;;;4.97;3.00;;;20.20;99.90;;;;;;5046722;28;20615;-49
2022/06/27 03:52:53;;;;;;;4.00;2.35;;;20.30;99.90;;;;;;5047618;28;20200;-49
2022/06/27 03:55:22;;;;;;;3.13;2.38;;;20.20;99.90;;;;;;5046458;28;20642;-50
2022/06/27 03:57:58;;;;;;;5.00;2.38;;;20.20;99.90;;;;;;5044325;28;20201;-49
2022/06/27 04:00:35;;;;;;;2.60;2.40;;;20.20;99.90;;;;;;5039196;28;20244;-49
2022/06/27 04:03:05;;;;;;;3.38;2.30;;;20.20;99.90;;;;;;5041969;28;20625;-50
2022/06/27 04:05:32;;;;;;;2.72;2.50;;;20.20;99.90;;;;;;5028541;28;20549;-33
2022/06/27 04:08:00;;;;;;;2.85;2.17;;;20.20;99.90;;;;;;5043284;28;20216;-33
2022/06/27 04:10:27;;;;;;;2.65;2.35;;;20.20;99.90;;;;;;5047234;28;20205;-33
2022/06/27 04:12:57;;;;;;;3.65;2.40;;;20.20;99.90;;;;;;5046993;28;20636;-33
2022/06/27 04:15:24;;;;;;;3.88;2.78;;;20.20;99.90;;;;;;5046041;28;20200;-33
2022/06/27 04:17:51;;;;;;;2.50;2.30;;;20.20;99.90;;;;;;5046074;28;20261;-33
2022/06/27 04:20:21;;;;;;;3.88;2.60;;;20.20;99.90;;;;;;5047624;28;20549;-33
2022/06/27 04:22:51;;;;;;;4.60;3.00;;;20.20;99.90;;;;;;5046946;28;20283;-33
2022/06/27 04:25:18;;;;;;;5.75;2.53;;;20.20;99.90;;;;;;5047077;28;20736;-33
2022/06/27 04:27:51;;;;;;;6.32;2.80;;;20.20;99.90;;;;;;5046772;28;20220;-33
2022/06/27 04:30:20;;;;;;;3.80;2.92;;;20.20;99.90;;;;;;5047079;28;20250;-33
2022/06/27 04:32:50;;;;;;;4.07;2.88;;;20.20;99.90;;;;;;5046860;28;20846;-33
2022/06/27 04:35:20;;;;;;;4.20;2.50;;;20.20;99.90;;;;;;5046123;28;20699;-33
2022/06/27 04:37:48;;;;;;;2.60;2.30;;;20.20;99.90;;;;;;5046954;28;20294;-33
2022/06/27 04:40:19;;;;;;;2.95;2.33;;;20.20;99.90;;;;;;5046168;28;20232;-33
2022/06/27 04:42:49;;;;;;;5.07;2.72;;;20.20;99.90;;;;;;5045966;28;20277;-33
2022/06/27 04:45:18;;;;;;;2.95;2.42;;;20.30;99.90;;;;;;5045057;28;20219;-33
2022/06/27 04:47:46;;;;;;;3.22;2.90;;;20.20;99.90;;;;;;5049657;28;20207;-33
2022/06/27 04:50:19;;;;;;;5.70;2.50;;;20.30;99.90;;;;;;5046159;28;20208;-33
2022/06/27 04:52:49;;;;;;;5.97;2.90;;;20.20;99.90;;;;;;5047141;28;20294;-34
2022/06/27 04:55:17;;;;;;;3.40;2.60;;;20.30;99.90;;;;;;5042632;28;20290;-33
2022/06/27 04:57:46;;;;;;;4.82;2.75;;;20.30;99.90;;;;;;5044772;28;20319;-33
2022/06/27 05:00:16;;;;;;;4.20;2.70;;;20.30;99.90;;;;;;5038036;28;20208;-33
2022/06/27 05:02:48;;;;;;;5.68;2.90;;;20.30;99.90;;;;;;5044982;28;20203;-33
2022/06/27 05:05:18;;;;;;;4.50;2.67;;;20.30;99.90;;;;;;5043167;28;20303;-33
2022/06/27 05:07:47;;;;;;;3.08;2.67;;;20.30;99.90;;;;;;5046514;28;20228;-33
2022/06/27 05:10:14;;;;;;;4.47;2.85;;;20.30;99.90;;;;;;5045389;28;20672;-33
2022/06/27 05:12:42;;;;;;;3.63;2.90;;;20.40;99.90;;;;;;5045124;28;20538;-33
2022/06/27 05:15:09;;;;;;;3.92;2.80;;;20.40;99.90;;;;;;5046181;28;20200;-33
2022/06/27 05:17:39;;;;;;;3.90;2.50;;;20.40;99.90;;;;;;5045727;28;20224;-33
2022/06/27 05:20:10;;;;;;;4.30;2.90;;;20.40;99.90;;;;;;5045032;28;20196;-33
2022/06/27 05:22:38;;;;;;;6.28;2.72;;;20.40;99.90;;;;;;5045637;28;20266;-33
2022/06/27 05:25:08;;;;;;;5.50;3.13;;;20.40;99.90;;;;;;5043916;28;20631;-33
2022/06/27 05:27:38;;;;;;;7.60;2.83;;;20.40;99.90;;;;;;5044452;28;20200;-33
2022/06/27 05:30:09;;;;;;;5.20;2.78;;;20.40;99.90;;;;;;5045833;28;20223;-33
2022/06/27 05:32:37;;;;;;;7.38;3.50;;;20.40;99.90;;;;;;5044388;28;20211;-33
2022/06/27 05:35:06;;;;;;;5.07;2.45;;;20.40;99.90;;;;;;5044876;28;20291;-33
2022/06/27 05:37:35;;;;;;;7.35;3.10;;;20.40;99.90;;;;;;5044003;28;20243;-33
2022/06/27 05:40:07;;;;;;;5.25;3.05;;;20.40;99.90;;;;;;5049665;28;20261;-33
2022/06/27 05:42:34;;;;;;;4.70;2.63;;;20.40;99.90;;;;;;5030604;28;20201;-34
2022/06/27 05:45:05;;;;;;;7.55;3.28;;;20.40;99.90;;;;;;5038409;28;20290;-33
2022/06/27 05:47:32;;;;;;;5.20;2.88;;;20.40;99.90;;;;;;5032959;28;20703;-33
2022/06/27 05:50:08;;;;;;;6.00;2.80;;;20.50;99.90;;;;;;5037799;28;20210;-33
2022/06/27 05:52:39;;;;;;;6.95;2.50;;;20.50;99.90;;;;;;5042917;28;20200;-33
2022/06/27 05:55:11;;;;;;;9.82;3.15;;;20.50;99.90;;;;;;5048213;28;20646;-33
2022/06/27 05:57:41;;;;;;;8.95;3.55;;;20.50;99.90;;;;;;5041693;28;20251;-33
2022/06/27 06:00:08;;;;;;;5.70;2.83;;;20.50;99.90;;;;;;5042702;28;20192;-33
2022/06/27 06:02:38;;;;;;;6.00;2.55;;;20.50;99.90;;;;;;5044577;28;20204;-33
2022/06/27 06:05:12;;;;;;;5.35;2.92;;;20.50;99.90;;;;;;5042180;28;20220;-33
2022/06/27 06:07:43;;;;;;;6.32;3.00;;;20.50;99.90;;;;;;5043674;28;20200;-33
2022/06/27 06:10:10;;;;;;;3.90;2.60;;;20.60;99.90;;;;;;5041217;28;20668;-33
2022/06/27 06:12:41;;;;;;;4.57;2.92;;;20.60;99.90;;;;;;5041546;28;20208;-33
2022/06/27 06:15:09;;;;;;;6.45;3.15;;;20.60;99.90;;;;;;5044372;28;20222;-33
2022/06/27 06:17:37;;;;;;;6.28;2.92;;;20.60;99.90;;;;;;5046874;28;20278;-33
2022/06/27 06:20:06;;;;;;;5.50;2.97;;;20.60;99.90;;;;;;5041009;28;20206;-33
2022/06/27 06:22:40;;;;;;;5.82;3.10;;;20.60;99.90;;;;;;5048611;28;20211;-33
2022/06/27 06:25:08;;;;;;;4.30;2.92;;;20.60;99.90;;;;;;5047306;28;20259;-33
2022/06/27 06:27:40;;;;;;;6.55;3.13;;;20.70;99.90;;;;;;5050329;28;20216;-33
2022/06/27 06:30:10;;;;;;;7.20;2.90;;;20.70;99.90;;;;;;5051323;28;20199;-33
2022/06/27 06:32:38;;;;;;;8.25;2.92;;;20.70;99.90;;;;;;5053619;28;20212;-33
2022/06/27 06:35:07;;;;;;;4.97;2.70;;;20.70;99.90;;;;;;5053621;28;20686;-33
2022/06/27 06:37:38;;;;;;;5.32;3.35;;;20.80;99.90;;;;;;5051101;28;20331;-33
2022/06/27 06:40:10;;;;;;;7.32;3.20;;;20.80;99.90;;;;;;5048806;28;20738;-32
2022/06/27 06:42:40;;;;;;;3.65;2.88;;;20.80;99.90;;;;;;5041121;28;20776;-32
2022/06/27 06:45:07;;;;;;;5.57;3.33;;;20.90;99.90;;;;;;5047920;28;20684;-33
2022/06/27 06:47:43;;;;;;;7.63;3.08;;;20.90;99.90;;;;;;5052927;28;20417;-33
2022/06/27 06:50:13;;;;;;;8.70;3.60;;;20.90;99.90;;;;;;5053382;28;20208;-33
2022/06/27 06:52:41;;;;;;;6.75;4.70;;;20.90;99.90;;;;;;5046540;28;20200;-33
2022/06/27 06:55:10;;;;;;;9.13;5.03;;;20.90;99.90;;;;;;5059595;28;20210;-33
2022/06/27 06:57:40;;;;;;;11.38;5.90;;;21.00;99.90;;;;;;5049242;28;20282;-33
2022/06/27 07:00:12;;;;;;;7.15;4.70;;;21.00;99.90;;;;;;5061339;28;20196;-33
2022/06/27 07:02:44;;;;;;;5.88;3.70;;;21.10;99.90;;;;;;5048568;28;20232;-33
2022/06/27 07:05:16;;;;;;;7.95;3.97;;;21.10;99.90;;;;;;5063424;28;20760;-33
2022/06/27 07:07:43;;;;;;;16.15;4.70;;;21.10;99.90;;;;;;5048235;28;20641;-33
2022/06/27 07:10:14;;;;;;;24.77;7.15;;;21.10;99.90;;;;;;5048887;28;20710;-33
2022/06/27 07:12:45;;;;;;;15.50;4.95;;;21.20;99.90;;;;;;5041662;28;20213;-32
2022/06/27 07:15:15;;;;;;;9.35;4.25;;;21.20;99.90;;;;;;5059611;28;20744;-32
2022/06/27 07:17:45;;;;;;;15.63;4.45;;;21.20;99.90;;;;;;5041968;28;20231;-32
2022/06/27 07:20:20;;;;;;;12.27;4.30;;;21.20;99.90;;;;;;5039281;28;20813;-32
2022/06/27 07:22:53;;;;;;;11.23;3.88;;;21.30;99.90;;;;;;5043364;28;20239;-32
2022/06/27 07:25:25;;;;;;;11.80;3.47;;;21.30;99.90;;;;;;5045461;28;20732;-34
2022/06/27 07:27:55;;;;;;;8.65;3.20;;;21.40;99.90;;;;;;5046602;28;20202;-33
2022/06/27 07:30:25;;;;;;;12.18;3.97;;;21.40;99.90;;;;;;5044540;28;20212;-33
2022/06/27 07:32:53;;;;;;;13.98;3.58;;;21.50;99.90;;;;;;5042129;28;20521;-33
2022/06/27 07:35:23;;;;;;;10.25;3.20;;;21.50;99.90;;;;;;5040058;28;20232;-33
2022/06/27 07:37:52;;;;;;;7.90;3.40;;;21.50;99.90;;;;;;5043800;28;20251;-33
2022/06/27 07:40:26;;;;;;;7.70;3.13;;;21.60;99.90;;;;;;5035190;28;20602;-33
2022/06/27 07:42:55;;;;;;;7.68;2.97;;;21.50;99.90;;;;;;5032963;28;20219;-33
2022/06/27 07:45:24;;;;;;;6.68;3.10;;;21.60;99.90;;;;;;5044818;28;20200;-32
2022/06/27 07:47:57;;;;;;;5.85;3.60;;;21.60;99.90;;;;;;5042503;28;20235;-32
2022/06/27 07:50:39;;;;;;;7.97;3.40;;;21.60;99.90;;;;;;5046632;28;20266;-32
2022/06/27 07:53:15;;;;;;;6.40;2.97;;;21.60;99.90;;;;;;5044757;28;20215;-32
2022/06/27 07:55:42;;;;;;;5.63;3.20;;;21.60;99.90;;;;;;5056491;28;20204;-32
2022/06/27 07:58:14;;;;;;;9.65;3.30;;;21.60;99.90;;;;;;5041505;28;20776;-32
2022/06/27 08:00:45;;;;;;;9.85;3.35;;;21.60;99.90;;;;;;5040499;28;20212;-32
2022/06/27 08:06:05;;;;;;;10.13;3.70;;;21.70;99.90;;;;;;5044472;28;20203;-32
2022/06/27 08:08:33;;;;;;;10.60;3.53;;;21.70;99.90;;;;;;5045907;28;20569;-32
2022/06/27 08:11:04;;;;;;;12.30;4.25;;;21.80;99.90;;;;;;5044935;28;20239;-32
2022/06/27 08:13:31;;;;;;;6.50;3.33;;;21.80;99.90;;;;;;5048428;28;20192;-33
2022/06/27 08:15:59;;;;;;;7.28;3.17;;;21.80;99.90;;;;;;5042842;28;20660;-32
2022/06/27 08:18:30;;;;;;;3.72;2.83;;;21.80;99.90;;;;;;5038654;28;20282;-32
2022/06/27 08:21:04;;;;;;;5.25;3.00;;;21.80;99.90;;;;;;5045257;28;20215;-32
2022/06/27 08:23:34;;;;;;;5.57;3.10;;;21.90;99.90;;;;;;5031207;28;20567;-32
2022/06/27 08:26:06;;;;;;;7.63;3.20;;;21.90;99.90;;;;;;5047193;28;20207;-32
2022/06/27 08:28:37;;;;;;;9.10;3.83;;;21.90;99.90;;;;;;5047326;28;20420;-32
2022/06/27 08:31:07;;;;;;;7.82;3.92;;;21.90;99.90;;;;;;5043522;28;20242;-32
2022/06/27 08:33:39;;;;;;;7.13;3.58;;;21.90;99.90;;;;;;5045126;28;20300;-32
2022/06/27 08:36:07;;;;;;;5.30;2.80;;;22.00;99.90;;;;;;5044528;28;20215;-33
2022/06/27 08:38:42;;;;;;;8.20;2.78;;;22.00;99.90;;;;;;5046705;28;20302;-32
2022/06/27 08:41:11;;;;;;;5.00;2.65;;;22.10;99.90;;;;;;5044704;28;20200;-32
2022/06/27 08:43:40;;;;;;;6.18;2.55;;;22.10;99.90;;;;;;5045591;28;20334;-32
2022/06/27 08:46:13;;;;;;;5.20;2.63;;;22.10;99.90;;;;;;5045050;28;20224;-32
2022/06/27 08:48:42;;;;;;;7.75;3.33;;;22.10;99.90;;;;;;5038192;28;20213;-32
2022/06/27 08:51:10;;;;;;;5.97;2.88;;;22.10;99.90;;;;;;5059112;28;20583;-32
2022/06/27 08:53:38;;;;;;;5.07;2.70;;;22.20;99.90;;;;;;5047737;28;20258;-32
2022/06/27 08:56:09;;;;;;;5.55;2.42;;;22.20;99.90;;;;;;5015076;28;20225;-32
2022/06/27 08:58:37;;;;;;;5.78;2.40;;;22.20;99.90;;;;;;5038448;28;20748;-32
2022/06/27 09:01:11;;;;;;;6.13;2.10;;;22.20;99.90;;;;;;5043939;28;20225;-32
2022/06/27 09:03:38;;;;;;;6.55;2.47;;;22.20;99.90;;;;;;5044776;28;20714;-32
2022/06/27 09:06:11;;;;;;;5.03;2.38;;;22.30;99.90;;;;;;5039305;28;20661;-32
2022/06/27 09:09:13;;;;;;;6.13;3.10;;;22.30;99.90;;;;;;5038442;28;20208;-32
2022/06/27 09:11:43;;;;;;;10.75;3.00;;;22.30;99.90;;;;;;5038061;28;20315;-32
2022/06/27 09:14:33;;;;;;;7.45;3.33;;;22.30;99.90;;;;;;5041491;28;20222;-32
2022/06/27 09:17:09;;;;;;;16.90;4.30;;;22.30;99.90;;;;;;5046825;28;20220;-32
2022/06/27 09:19:54;;;;;;;14.02;4.50;;;22.40;99.90;;;;;;5043246;28;20238;-32
2022/06/27 09:22:28;;;;;;;9.50;3.20;;;22.40;99.90;;;;;;5045108;28;20204;-32
2022/06/27 09:25:09;;;;;;;8.13;2.65;;;22.40;99.90;;;;;;5041960;28;20208;-32
2022/06/27 09:27:40;;;;;;;5.82;2.80;;;22.30;99.90;;;;;;5044350;28;20245;-32
2022/06/27 09:30:20;;;;;;;8.68;2.67;;;22.40;99.90;;;;;;5046554;28;20216;-32
2022/06/27 09:32:51;;;;;;;5.10;2.42;;;22.30;99.90;;;;;;5046816;28;20208;-32
2022/06/27 09:35:39;;;;;;;16.50;4.05;;;22.30;99.90;;;;;;5046479;28;20200;-32
2022/06/27 09:38:10;;;;;;;7.07;3.10;;;22.30;99.90;;;;;;5041762;28;20239;-34
2022/06/27 09:40:42;;;;;;;7.05;2.70;;;22.30;99.90;;;;;;5045757;28;20200;-32
2022/06/27 09:43:10;;;;;;;9.20;2.60;;;22.40;99.90;;;;;;5043449;28;20612;-32
2022/06/27 09:45:41;;;;;;;4.72;2.80;;;22.40;99.90;;;;;;5046665;28;20716;-32
2022/06/27 09:48:16;;;;;;;6.50;2.75;;;22.40;99.90;;;;;;5046596;28;20195;-34
2022/06/27 09:50:47;;;;;;;6.72;2.65;;;22.40;99.90;;;;;;5035244;28;20208;-32
2022/06/27 09:53:18;;;;;;;5.07;2.60;;;22.40;99.90;;;;;;5034144;28;20205;-32
2022/06/27 09:55:48;;;;;;;7.43;2.90;;;22.50;99.90;;;;;;5041912;28;20893;-35
2022/06/27 09:58:16;;;;;;;4.50;2.60;;;22.50;99.90;;;;;;5038668;28;20320;-33
2022/06/27 10:00:45;;;;;;;4.72;2.40;;;22.50;99.90;;;;;;5044170;28;20709;-32
2022/06/27 10:03:12;;;;;;;3.83;2.53;;;22.50;99.90;;;;;;5036689;28;20209;-33
2022/06/27 10:05:43;;;;;;;4.50;2.80;;;22.50;99.90;;;;;;5042210;28;20204;-33
2022/06/27 10:08:12;;;;;;;3.53;2.35;;;22.50;99.90;;;;;;5045799;28;20694;-33
2022/06/27 10:11:04;;;;;;;3.83;2.33;;;22.50;99.90;;;;;;5044956;28;20223;-33
2022/06/27 10:13:35;;;;;;;4.00;2.47;;;22.50;99.90;;;;;;5040827;28;20204;-33
2022/06/27 10:16:10;;;;;;;5.40;2.58;;;22.50;99.90;;;;;;5032120;28;20306;-33
2022/06/27 10:19:03;;;;;;;9.88;3.13;;;22.50;99.90;;;;;;5043423;28;20247;-33
2022/06/27 10:21:41;;;;;;;6.15;2.92;;;22.50;99.90;;;;;;5039917;28;20200;-33
2022/06/27 10:24:26;;;;;;;5.20;2.63;;;22.50;99.90;;;;;;5045334;28;20200;-33
2022/06/27 10:26:56;;;;;;;4.38;2.60;;;22.40;99.90;;;;;;5043136;28;20242;-33
2022/06/27 10:29:45;;;;;;;4.97;2.70;;;22.50;99.90;;;;;;5055897;28;20231;-33
2022/06/27 10:32:42;;;;;;;6.65;2.95;;;22.50;99.90;;;;;;5034279;28;20201;-34
2022/06/27 10:35:14;;;;;;;13.02;4.03;;;22.50;99.90;;;;;;5053050;28;20286;-33
2022/06/27 10:37:42;;;;;;;25.98;6.35;;;22.50;99.90;;;;;;5047334;28;20239;-33
2022/06/27 10:40:19;;;;;;;10.73;4.38;;;22.40;99.90;;;;;;5044876;28;20216;-33
2022/06/27 10:42:53;;;;;;;8.02;2.78;;;22.50;99.90;;;;;;5037563;28;20242;-33
2022/06/27 10:45:23;;;;;;;10.02;3.30;;;22.40;99.90;;;;;;5056379;28;20243;-33
2022/06/27 10:47:52;;;;;;;9.05;3.70;;;22.40;99.90;;;;;;5045547;28;20208;-33
2022/06/27 10:50:24;;;;;;;5.55;3.15;;;22.40;99.90;;;;;;5044934;28;20733;-34
2022/06/27 10:53:25;;;;;;;8.65;3.88;;;22.40;99.90;;;;;;5044535;28;20254;-33
2022/06/27 10:55:57;;;;;;;7.18;3.28;;;22.40;99.90;;;;;;5043485;28;20242;-33
2022/06/27 10:58:30;;;;;;;5.32;2.67;;;22.30;99.90;;;;;;5045410;28;20240;-33
2022/06/27 11:01:18;;;;;;;6.75;3.22;;;22.40;99.90;;;;;;5045024;28;20314;-33
2022/06/27 11:03:46;;;;;;;34.83;7.30;;;22.40;99.90;;;;;;5044466;28;20671;-33
2022/06/27 11:06:14;;;;;;;9.05;3.10;;;22.40;99.90;;;;;;5043860;28;20666;-33
2022/06/27 11:08:51;;;;;;;5.00;2.78;;;22.40;99.90;;;;;;5045694;28;20211;-34
2022/06/27 11:11:30;;;;;;;10.07;3.30;;;22.40;99.90;;;;;;5047012;28;20207;-33
2022/06/27 11:14:02;;;;;;;9.60;3.58;;;22.40;99.90;;;;;;5048689;28;20239;-33
2022/06/27 11:16:31;;;;;;;4.10;2.47;;;22.50;99.90;;;;;;5070464;28;20286;-33
2022/06/27 11:20:04;;;;;;;14.60;3.97;;;22.50;99.90;;;;;;5052840;28;20243;-33
2022/06/27 11:21:56;;;;;;;9.50;3.60;;;22.50;99.90;;;;;;5057285;28;20821;-33
2022/06/27 11:24:23;;;;;;;9.00;3.58;;;22.50;99.90;;;;;;5058683;28;20188;-34
2022/06/27 11:26:54;;;;;;;14.00;4.47;;;22.50;99.90;;;;;;5049387;28;20626;-34
2022/06/27 11:32:13;;;;;;;9.63;3.00;;;22.30;99.90;;;;;;5041195;28;20212;-34
2022/06/27 11:34:43;;;;;;;9.65;3.00;;;22.20;99.90;;;;;;5048168;28;20702;-34
2022/06/27 11:37:15;;;;;;;7.57;3.10;;;22.10;99.90;;;;;;5045443;28;20236;-33
2022/06/27 11:40:07;;;;;;;9.60;3.42;;;22.00;99.90;;;;;;5048607;28;20235;-33
2022/06/27 11:42:36;;;;;;;7.28;3.60;;;21.90;99.90;;;;;;5067880;28;20199;-33
2022/06/27 11:45:07;;;;;;;5.60;3.05;;;21.70;99.90;;;;;;5061859;28;20196;-34
2022/06/27 11:47:41;;;;;;;6.72;3.15;;;21.60;99.90;;;;;;5047674;28;20465;-33
2022/06/27 11:50:19;;;;;;;9.52;2.72;;;21.60;99.90;;;;;;5048078;28;20199;-33
2022/06/27 11:52:56;;;;;;;5.50;2.75;;;21.50;99.90;;;;;;5049046;28;20199;-34
2022/06/27 11:55:27;;;;;;;3.50;2.28;;;21.40;99.90;;;;;;5044366;28;20394;-33
2022/06/27 11:58:03;;;;;;;6.22;2.40;;;21.30;99.90;;;;;;5045332;28;20685;-34
2022/06/27 12:00:39;;;;;;;5.47;2.47;;;21.30;99.90;;;;;;5066756;28;20304;-33
2022/06/27 12:03:13;;;;;;;6.13;2.70;;;21.30;99.90;;;;;;5058216;28;20216;-34
2022/06/27 12:05:42;;;;;;;3.58;1.95;;;21.20;99.90;;;;;;5048240;28;20748;-34
2022/06/27 12:08:17;;;;;;;7.25;2.97;;;21.20;99.90;;;;;;5054112;28;20257;-34
2022/06/27 12:11:16;;;;;;;6.32;2.70;;;21.20;99.90;;;;;;5043895;28;20567;-33
2022/06/27 12:13:40;;;;;;;5.60;2.67;;;21.10;99.90;;;;;;5044888;28;20655;-34
2022/06/27 12:16:12;;;;;;;5.63;2.60;;;21.10;99.90;;;;;;5046332;28;20753;-33
2022/06/27 12:18:46;;;;;;;4.90;2.75;;;21.10;99.90;;;;;;5048041;28;20224;-33
2022/06/27 12:21:13;;;;;;;4.85;2.72;;;21.20;99.90;;;;;;5048286;28;20249;-33
2022/06/27 12:23:43;;;;;;;5.38;2.60;;;21.20;99.90;;;;;;5047308;28;20198;-33
2022/06/27 12:26:10;;;;;;;5.03;2.70;;;21.30;99.90;;;;;;5046051;28;20298;-34
2022/06/27 12:28:40;;;;;;;6.07;3.33;;;21.40;99.90;;;;;;5053648;28;20299;-34
2022/06/27 12:31:10;;;;;;;5.75;2.92;;;21.50;99.90;;;;;;5048591;28;20212;-33
2022/06/27 12:33:40;;;;;;;4.20;3.05;;;21.50;99.90;;;;;;5045505;28;20207;-34
2022/06/27 12:36:08;;;;;;;3.85;2.53;;;21.50;99.90;;;;;;5039041;28;20583;-34
2022/06/27 12:38:35;;;;;;;4.70;1.35;;;21.60;99.90;;;;;;5043831;28;20226;-34
2022/06/27 12:41:17;;;;;;;2.33;1.08;;;21.60;99.90;;;;;;5042475;28;20277;-34
2022/06/27 12:43:47;;;;;;;4.43;1.10;;;21.40;99.90;;;;;;5045225;28;20204;-35
2022/06/27 12:46:18;;;;;;;5.35;1.15;;;21.20;99.90;;;;;;5047483;28;20245;-34
2022/06/27 12:48:49;;;;;;;3.33;1.00;;;20.90;99.90;;;;;;5040620;28;20262;-34
2022/06/27 12:51:17;;;;;;;4.75;1.00;;;20.60;99.90;;;;;;5043469;28;20265;-34
2022/06/27 12:53:44;;;;;;;5.28;0.85;;;20.40;99.90;;;;;;5043575;28;20265;-35
2022/06/27 12:56:11;;;;;;;3.58;1.35;;;20.20;99.90;;;;;;5046144;28;20610;-34
2022/06/27 12:58:39;;;;;;;3.05;1.20;;;19.90;99.90;;;;;;5045326;28;20580;-34
2022/06/27 13:01:06;;;;;;;2.17;1.10;;;19.80;99.90;;;;;;5046414;28;20196;-34
2022/06/27 13:03:33;;;;;;;2.50;1.17;;;19.70;99.90;;;;;;5046665;28;20212;-33
2022/06/27 13:06:03;;;;;;;3.58;1.30;;;19.50;99.90;;;;;;5062953;28;20207;-33
2022/06/27 13:08:33;;;;;;;2.70;1.10;;;19.40;99.90;;;;;;5045710;28;20254;-33
2022/06/27 13:11:00;;;;;;;6.20;1.52;;;19.30;99.90;;;;;;5045179;28;20211;-33